sensor_id;sensor_type;location;lat;lon;timestamp;pressure;altitude;pressure_sealevel;temperature;humidity
75247;BME280;63844;50.042;19.224;2023-06-26T00:01:33;99053.73;;;15.76;79.95
75247;BME280;63844;50.042;19.224;2023-06-26T00:04:00;99056.59;;;15.66;82.81
75247;BME280;63844;50.042;19.224;2023-06-26T00:06:27;99058.70;;;15.49;84.46
75247;BME280;63844;50.042;19.224;2023-06-26T00:08:54;99053.46;;;15.52;83.72
75247;BME280;63844;50.042;19.224;2023-06-26T00:11:22;99050.48;;;15.55;82.68
75247;BME280;63844;50.042;19.224;2023-06-26T00:13:48;99049.96;;;15.55;82.93
75247;BME280;63844;50.042;19.224;2023-06-26T00:16:15;99049.48;;;15.51;83.06
75247;BME280;63844;50.042;19.224;2023-06-26T00:18:41;99048.38;;;15.36;84.30
75247;BME280;63844;50.042;19.224;2023-06-26T00:21:08;99050.44;;;15.29;84.89
75247;BME280;63844;50.042;19.224;2023-06-26T00:23:34;99047.71;;;15.31;84.57
75247;BME280;63844;50.042;19.224;2023-06-26T00:26:04;99046.42;;;15.32;84.82
75247;BME280;63844;50.042;19.224;2023-06-26T00:28:31;99049.58;;;15.37;82.09
75247;BME280;63844;50.042;19.224;2023-06-26T00:30:57;99050.65;;;15.39;81.02
75247;BME280;63844;50.042;19.224;2023-06-26T00:33:23;99052.23;;;15.37;81.19
75247;BME280;63844;50.042;19.224;2023-06-26T00:35:50;99052.00;;;15.35;81.07
75247;BME280;63844;50.042;19.224;2023-06-26T00:38:16;99050.48;;;15.31;82.08
75247;BME280;63844;50.042;19.224;2023-06-26T00:40:43;99052.90;;;15.27;81.65
75247;BME280;63844;50.042;19.224;2023-06-26T00:43:10;99052.89;;;15.25;82.27
75247;BME280;63844;50.042;19.224;2023-06-26T00:45:36;99052.27;;;15.24;82.10
75247;BME280;63844;50.042;19.224;2023-06-26T00:48:03;99054.13;;;15.23;83.40
75247;BME280;63844;50.042;19.224;2023-06-26T00:50:30;99054.28;;;15.23;82.66
75247;BME280;63844;50.042;19.224;2023-06-26T00:52:56;99053.05;;;15.23;83.15
75247;BME280;63844;50.042;19.224;2023-06-26T00:55:27;99051.90;;;15.22;83.49
75247;BME280;63844;50.042;19.224;2023-06-26T00:57:54;99047.55;;;15.19;81.33
75247;BME280;63844;50.042;19.224;2023-06-26T01:00:21;99045.80;;;15.16;83.05
75247;BME280;63844;50.042;19.224;2023-06-26T01:02:47;99047.85;;;15.13;83.12
75247;BME280;63844;50.042;19.224;2023-06-26T01:05:14;99046.30;;;15.06;85.33
75247;BME280;63844;50.042;19.224;2023-06-26T01:07:48;99043.84;;;14.99;86.01
75247;BME280;63844;50.042;19.224;2023-06-26T01:10:14;99044.04;;;14.96;84.75
75247;BME280;63844;50.042;19.224;2023-06-26T01:12:41;99042.67;;;14.98;84.33
75247;BME280;63844;50.042;19.224;2023-06-26T01:15:08;99044.69;;;14.99;85.12
75247;BME280;63844;50.042;19.224;2023-06-26T01:17:37;99043.00;;;14.94;86.23
75247;BME280;63844;50.042;19.224;2023-06-26T01:20:05;99043.21;;;14.92;86.68
75247;BME280;63844;50.042;19.224;2023-06-26T01:22:45;99047.88;;;14.91;86.24
75247;BME280;63844;50.042;19.224;2023-06-26T01:25:35;99039.11;;;14.92;86.22
75247;BME280;63844;50.042;19.224;2023-06-26T01:28:06;99040.47;;;14.90;86.08
75247;BME280;63844;50.042;19.224;2023-06-26T01:30:40;99042.01;;;14.91;84.75
75247;BME280;63844;50.042;19.224;2023-06-26T01:33:07;99042.11;;;14.90;85.63
75247;BME280;63844;50.042;19.224;2023-06-26T01:35:34;99039.52;;;14.87;85.62
75247;BME280;63844;50.042;19.224;2023-06-26T01:38:12;99040.30;;;14.86;84.97
75247;BME280;63844;50.042;19.224;2023-06-26T01:40:39;99038.80;;;14.85;85.30
75247;BME280;63844;50.042;19.224;2023-06-26T01:43:08;99037.44;;;14.82;86.27
75247;BME280;63844;50.042;19.224;2023-06-26T01:45:38;99032.02;;;14.78;85.35
75247;BME280;63844;50.042;19.224;2023-06-26T01:48:06;99031.69;;;14.76;83.29
75247;BME280;63844;50.042;19.224;2023-06-26T01:50:36;99031.45;;;14.77;84.84
75247;BME280;63844;50.042;19.224;2023-06-26T01:53:11;99029.67;;;14.74;85.74
75247;BME280;63844;50.042;19.224;2023-06-26T01:55:44;99032.70;;;14.74;85.22
75247;BME280;63844;50.042;19.224;2023-06-26T01:58:13;99035.06;;;14.76;86.20
75247;BME280;63844;50.042;19.224;2023-06-26T02:00:41;99033.85;;;14.73;88.45
75247;BME280;63844;50.042;19.224;2023-06-26T02:03:08;99035.88;;;14.71;87.36
75247;BME280;63844;50.042;19.224;2023-06-26T02:05:34;99034.46;;;14.73;84.65
75247;BME280;63844;50.042;19.224;2023-06-26T02:08:01;99035.56;;;14.68;86.33
75247;BME280;63844;50.042;19.224;2023-06-26T02:10:29;99033.02;;;14.65;85.39
75247;BME280;63844;50.042;19.224;2023-06-26T02:12:56;99032.64;;;14.62;84.96
75247;BME280;63844;50.042;19.224;2023-06-26T02:15:22;99029.52;;;14.59;84.53
75247;BME280;63844;50.042;19.224;2023-06-26T02:17:49;99031.79;;;14.57;84.25
75247;BME280;63844;50.042;19.224;2023-06-26T02:20:15;99028.66;;;14.54;84.62
75247;BME280;63844;50.042;19.224;2023-06-26T02:22:42;99029.08;;;14.53;84.83
75247;BME280;63844;50.042;19.224;2023-06-26T02:25:09;99029.09;;;14.53;85.20
75247;BME280;63844;50.042;19.224;2023-06-26T02:27:36;99031.73;;;14.49;83.72
75247;BME280;63844;50.042;19.224;2023-06-26T02:30:03;99028.28;;;14.48;85.55
75247;BME280;63844;50.042;19.224;2023-06-26T02:32:29;99029.20;;;14.50;86.82
75247;BME280;63844;50.042;19.224;2023-06-26T02:34:56;99027.77;;;14.52;84.82
75247;BME280;63844;50.042;19.224;2023-06-26T02:37:22;99025.34;;;14.49;84.70
75247;BME280;63844;50.042;19.224;2023-06-26T02:39:49;99031.85;;;14.45;84.55
75247;BME280;63844;50.042;19.224;2023-06-26T02:42:15;99033.29;;;14.45;85.58
75247;BME280;63844;50.042;19.224;2023-06-26T02:44:41;99032.61;;;14.45;87.45
75247;BME280;63844;50.042;19.224;2023-06-26T02:47:08;99034.33;;;14.45;86.05
75247;BME280;63844;50.042;19.224;2023-06-26T02:49:34;99038.23;;;14.48;85.53
75247;BME280;63844;50.042;19.224;2023-06-26T02:52:01;99034.23;;;14.44;85.52
75247;BME280;63844;50.042;19.224;2023-06-26T02:54:27;99035.42;;;14.41;84.27
75247;BME280;63844;50.042;19.224;2023-06-26T02:56:53;99031.46;;;14.34;84.66
75247;BME280;63844;50.042;19.224;2023-06-26T02:59:20;99034.45;;;14.33;84.72
75247;BME280;63844;50.042;19.224;2023-06-26T03:01:46;99040.73;;;14.30;84.30
75247;BME280;63844;50.042;19.224;2023-06-26T03:04:13;99041.73;;;14.29;84.10
75247;BME280;63844;50.042;19.224;2023-06-26T03:06:41;99042.84;;;14.26;83.50
75247;BME280;63844;50.042;19.224;2023-06-26T03:09:08;99040.66;;;14.24;83.21
75247;BME280;63844;50.042;19.224;2023-06-26T03:11:34;99040.35;;;14.22;83.33
75247;BME280;63844;50.042;19.224;2023-06-26T03:14:00;99038.60;;;14.22;84.31
75247;BME280;63844;50.042;19.224;2023-06-26T03:16:27;99039.13;;;14.22;84.27
75247;BME280;63844;50.042;19.224;2023-06-26T03:18:53;99039.39;;;14.20;84.42
75247;BME280;63844;50.042;19.224;2023-06-26T03:21:20;99038.58;;;14.22;85.43
75247;BME280;63844;50.042;19.224;2023-06-26T03:23:46;99039.17;;;14.25;84.21
75247;BME280;63844;50.042;19.224;2023-06-26T03:26:13;99041.63;;;14.30;84.29
75247;BME280;63844;50.042;19.224;2023-06-26T03:28:40;99039.44;;;14.35;85.77
75247;BME280;63844;50.042;19.224;2023-06-26T03:31:08;99037.89;;;14.39;84.77
75247;BME280;63844;50.042;19.224;2023-06-26T03:33:34;99039.70;;;14.43;85.12
75247;BME280;63844;50.042;19.224;2023-06-26T03:36:01;99040.39;;;14.49;85.39
75247;BME280;63844;50.042;19.224;2023-06-26T03:38:27;99039.61;;;14.55;84.62
75247;BME280;63844;50.042;19.224;2023-06-26T03:40:54;99041.23;;;14.62;85.58
75247;BME280;63844;50.042;19.224;2023-06-26T03:43:20;99044.70;;;14.67;87.99
75247;BME280;63844;50.042;19.224;2023-06-26T03:45:47;99047.50;;;14.74;85.44
75247;BME280;63844;50.042;19.224;2023-06-26T03:48:13;99049.61;;;14.79;86.64
75247;BME280;63844;50.042;19.224;2023-06-26T03:50:40;99049.44;;;14.83;84.10
75247;BME280;63844;50.042;19.224;2023-06-26T03:53:06;99052.66;;;14.87;84.56
75247;BME280;63844;50.042;19.224;2023-06-26T03:55:33;99055.93;;;14.95;86.42
75247;BME280;63844;50.042;19.224;2023-06-26T03:58:00;99057.95;;;15.03;85.91
75247;BME280;63844;50.042;19.224;2023-06-26T04:00:27;99057.58;;;15.10;84.53
75247;BME280;63844;50.042;19.224;2023-06-26T04:02:54;99052.04;;;15.14;83.97
75247;BME280;63844;50.042;19.224;2023-06-26T04:05:20;99052.45;;;15.18;84.55
75247;BME280;63844;50.042;19.224;2023-06-26T04:07:51;99053.05;;;15.21;83.45
75247;BME280;63844;50.042;19.224;2023-06-26T04:10:17;99051.04;;;15.32;84.52
75247;BME280;63844;50.042;19.224;2023-06-26T04:12:44;99050.42;;;15.39;85.52
75247;BME280;63844;50.042;19.224;2023-06-26T04:15:10;99048.27;;;15.46;85.05
75247;BME280;63844;50.042;19.224;2023-06-26T04:17:37;99047.79;;;15.49;85.34
75247;BME280;63844;50.042;19.224;2023-06-26T04:20:03;99049.37;;;15.56;85.10
75247;BME280;63844;50.042;19.224;2023-06-26T04:22:33;99044.81;;;15.61;84.83
75247;BME280;63844;50.042;19.224;2023-06-26T04:25:03;99043.00;;;15.70;84.30
75247;BME280;63844;50.042;19.224;2023-06-26T04:27:30;99036.09;;;15.78;83.70
75247;BME280;63844;50.042;19.224;2023-06-26T04:29:59;99035.68;;;15.81;84.38
75247;BME280;63844;50.042;19.224;2023-06-26T04:32:25;99037.26;;;15.87;84.24
75247;BME280;63844;50.042;19.224;2023-06-26T04:34:52;99037.38;;;15.92;83.87
75247;BME280;63844;50.042;19.224;2023-06-26T04:37:18;99036.40;;;15.99;83.81
75247;BME280;63844;50.042;19.224;2023-06-26T04:39:45;99036.38;;;16.05;83.82
75247;BME280;63844;50.042;19.224;2023-06-26T04:42:11;99042.34;;;16.13;83.12
75247;BME280;63844;50.042;19.224;2023-06-26T04:44:38;99042.09;;;16.18;83.45
75247;BME280;63844;50.042;19.224;2023-06-26T04:47:07;99041.08;;;16.25;83.33
75247;BME280;63844;50.042;19.224;2023-06-26T04:49:34;99040.08;;;16.32;82.96
75247;BME280;63844;50.042;19.224;2023-06-26T04:52:00;99043.77;;;16.37;82.78
75247;BME280;63844;50.042;19.224;2023-06-26T04:54:27;99042.67;;;16.43;82.04
75247;BME280;63844;50.042;19.224;2023-06-26T04:56:54;99045.59;;;16.47;81.83
75247;BME280;63844;50.042;19.224;2023-06-26T04:59:20;99045.80;;;16.52;82.01
75247;BME280;63844;50.042;19.224;2023-06-26T05:01:47;99047.09;;;16.60;81.55
75247;BME280;63844;50.042;19.224;2023-06-26T05:04:14;99048.34;;;16.67;81.31
75247;BME280;63844;50.042;19.224;2023-06-26T05:06:42;79238.37;;;-12.20;64.51
75247;BME280;63844;50.042;19.224;2023-06-26T05:09:08;99051.86;;;16.80;80.78
75247;BME280;63844;50.042;19.224;2023-06-26T05:11:34;99052.29;;;16.85;80.65
75247;BME280;63844;50.042;19.224;2023-06-26T05:14:01;99054.86;;;16.91;80.75
75247;BME280;63844;50.042;19.224;2023-06-26T05:16:28;99052.80;;;17.01;80.39
75247;BME280;63844;50.042;19.224;2023-06-26T05:18:54;99052.33;;;17.10;80.43
75247;BME280;63844;50.042;19.224;2023-06-26T05:21:21;99050.98;;;17.13;79.76
75247;BME280;63844;50.042;19.224;2023-06-26T05:23:49;99049.50;;;17.16;79.50
75247;BME280;63844;50.042;19.224;2023-06-26T05:26:17;99047.70;;;17.20;79.26
75247;BME280;63844;50.042;19.224;2023-06-26T05:28:43;99046.84;;;17.21;79.14
75247;BME280;63844;50.042;19.224;2023-06-26T05:31:15;99048.80;;;17.29;79.29
75247;BME280;63844;50.042;19.224;2023-06-26T05:33:45;99047.29;;;17.34;78.66
75247;BME280;63844;50.042;19.224;2023-06-26T05:36:13;99044.31;;;17.41;78.57
75247;BME280;63844;50.042;19.224;2023-06-26T05:38:41;99046.25;;;17.49;78.54
75247;BME280;63844;50.042;19.224;2023-06-26T05:41:07;99041.64;;;17.52;78.18
75247;BME280;63844;50.042;19.224;2023-06-26T05:43:34;99037.18;;;17.58;77.70
75247;BME280;63844;50.042;19.224;2023-06-26T05:46:00;99039.27;;;17.69;77.97
75247;BME280;63844;50.042;19.224;2023-06-26T05:48:27;99040.80;;;17.82;77.62
75247;BME280;63844;50.042;19.224;2023-06-26T05:50:54;99037.75;;;17.90;77.19
75247;BME280;63844;50.042;19.224;2023-06-26T05:53:21;99032.23;;;17.97;76.73
75247;BME280;63844;50.042;19.224;2023-06-26T05:55:47;99035.99;;;18.04;76.70
75247;BME280;63844;50.042;19.224;2023-06-26T05:58:14;99034.91;;;18.10;76.03
75247;BME280;63844;50.042;19.224;2023-06-26T06:00:42;99035.60;;;18.15;75.40
75247;BME280;63844;50.042;19.224;2023-06-26T06:03:09;99030.97;;;18.19;75.84
75247;BME280;63844;50.042;19.224;2023-06-26T06:05:37;99031.92;;;18.24;74.92
75247;BME280;63844;50.042;19.224;2023-06-26T06:08:04;99036.23;;;18.33;74.86
75247;BME280;63844;50.042;19.224;2023-06-26T06:10:30;99029.24;;;18.42;74.62
75247;BME280;63844;50.042;19.224;2023-06-26T06:12:57;99027.20;;;18.52;74.56
75247;BME280;63844;50.042;19.224;2023-06-26T06:15:23;99027.75;;;18.59;74.76
75247;BME280;63844;50.042;19.224;2023-06-26T06:17:50;99026.14;;;18.70;74.84
75247;BME280;63844;50.042;19.224;2023-06-26T06:20:17;99029.20;;;18.76;74.55
75247;BME280;63844;50.042;19.224;2023-06-26T06:22:46;99030.20;;;18.88;74.71
75247;BME280;63844;50.042;19.224;2023-06-26T06:25:12;99028.73;;;18.93;73.27
75247;BME280;63844;50.042;19.224;2023-06-26T06:27:39;99030.19;;;18.98;73.20
75247;BME280;63844;50.042;19.224;2023-06-26T06:30:06;99032.16;;;19.07;73.22
75247;BME280;63844;50.042;19.224;2023-06-26T06:32:33;99029.15;;;19.14;72.56
75247;BME280;63844;50.042;19.224;2023-06-26T06:35:00;99030.08;;;19.16;70.44
75247;BME280;63844;50.042;19.224;2023-06-26T06:37:30;99028.16;;;19.20;70.68
75247;BME280;63844;50.042;19.224;2023-06-26T06:39:57;99029.06;;;19.31;71.92
75247;BME280;63844;50.042;19.224;2023-06-26T06:42:25;99024.50;;;19.42;71.11
75247;BME280;63844;50.042;19.224;2023-06-26T06:44:52;99026.54;;;19.52;71.21
75247;BME280;63844;50.042;19.224;2023-06-26T06:47:18;99027.05;;;19.66;69.57
75247;BME280;63844;50.042;19.224;2023-06-26T06:49:45;99026.30;;;19.74;69.00
75247;BME280;63844;50.042;19.224;2023-06-26T06:52:12;99025.46;;;19.84;69.14
75247;BME280;63844;50.042;19.224;2023-06-26T06:54:51;99027.30;;;19.88;67.71
75247;BME280;63844;50.042;19.224;2023-06-26T06:57:22;99027.71;;;19.91;66.77
75247;BME280;63844;50.042;19.224;2023-06-26T06:59:49;99027.04;;;19.92;66.71
75247;BME280;63844;50.042;19.224;2023-06-26T07:02:18;99027.48;;;19.99;67.87
75247;BME280;63844;50.042;19.224;2023-06-26T07:04:45;99027.77;;;20.10;67.40
75247;BME280;63844;50.042;19.224;2023-06-26T07:07:12;99029.56;;;20.16;66.61
75247;BME280;63844;50.042;19.224;2023-06-26T07:09:40;99028.39;;;20.27;67.27
75247;BME280;63844;50.042;19.224;2023-06-26T07:12:06;99027.23;;;20.35;66.10
75247;BME280;63844;50.042;19.224;2023-06-26T07:14:33;99026.91;;;20.38;65.43
75247;BME280;63844;50.042;19.224;2023-06-26T07:16:59;99021.20;;;20.51;65.34
75247;BME280;63844;50.042;19.224;2023-06-26T07:19:26;99017.73;;;20.60;64.14
75247;BME280;63844;50.042;19.224;2023-06-26T07:21:52;99015.06;;;20.75;64.37
75247;BME280;63844;50.042;19.224;2023-06-26T07:24:19;99013.38;;;20.86;64.95
75247;BME280;63844;50.042;19.224;2023-06-26T07:26:45;99014.80;;;20.96;65.06
75247;BME280;63844;50.042;19.224;2023-06-26T07:29:12;99014.04;;;21.00;63.58
75247;BME280;63844;50.042;19.224;2023-06-26T07:31:38;99013.83;;;21.01;63.64
75247;BME280;63844;50.042;19.224;2023-06-26T07:34:05;99013.86;;;21.04;63.08
75247;BME280;63844;50.042;19.224;2023-06-26T07:36:31;99010.90;;;21.10;61.88
75247;BME280;63844;50.042;19.224;2023-06-26T07:38:58;99015.24;;;21.21;60.94
75247;BME280;63844;50.042;19.224;2023-06-26T07:41:24;99016.80;;;21.25;60.56
75247;BME280;63844;50.042;19.224;2023-06-26T07:43:51;99010.63;;;21.32;59.91
75247;BME280;63844;50.042;19.224;2023-06-26T07:46:17;99011.70;;;21.42;61.19
75247;BME280;63844;50.042;19.224;2023-06-26T07:48:43;99010.53;;;21.54;61.71
75247;BME280;63844;50.042;19.224;2023-06-26T07:51:10;99015.20;;;21.64;60.10
75247;BME280;63844;50.042;19.224;2023-06-26T07:53:36;99009.09;;;21.65;59.81
75247;BME280;63844;50.042;19.224;2023-06-26T07:56:03;99008.88;;;21.72;60.07
75247;BME280;63844;50.042;19.224;2023-06-26T07:58:29;99006.92;;;21.83;58.68
75247;BME280;63844;50.042;19.224;2023-06-26T08:00:56;99007.05;;;21.89;59.31
75247;BME280;63844;50.042;19.224;2023-06-26T08:03:22;99003.30;;;21.90;58.93
75247;BME280;63844;50.042;19.224;2023-06-26T08:05:49;99006.01;;;21.99;58.54
75247;BME280;63844;50.042;19.224;2023-06-26T08:08:16;99007.86;;;22.01;57.28
75247;BME280;63844;50.042;19.224;2023-06-26T08:10:43;99007.86;;;22.10;57.68
75247;BME280;63844;50.042;19.224;2023-06-26T08:13:09;99004.30;;;22.11;56.91
75247;BME280;63844;50.042;19.224;2023-06-26T08:15:36;99002.70;;;22.14;58.16
75247;BME280;63844;50.042;19.224;2023-06-26T08:18:02;99002.41;;;22.28;58.42
75247;BME280;63844;50.042;19.224;2023-06-26T08:20:29;98999.13;;;22.35;57.05
75247;BME280;63844;50.042;19.224;2023-06-26T08:22:56;98998.63;;;22.45;56.88
75247;BME280;63844;50.042;19.224;2023-06-26T08:25:22;98997.19;;;22.62;55.33
75247;BME280;63844;50.042;19.224;2023-06-26T08:27:49;98997.09;;;22.71;53.74
75247;BME280;63844;50.042;19.224;2023-06-26T08:30:18;98995.78;;;22.73;52.26
75247;BME280;63844;50.042;19.224;2023-06-26T08:32:45;98995.50;;;22.77;52.64
75247;BME280;63844;50.042;19.224;2023-06-26T08:35:11;98995.52;;;22.84;54.44
75247;BME280;63844;50.042;19.224;2023-06-26T08:37:38;98998.42;;;22.84;52.98
75247;BME280;63844;50.042;19.224;2023-06-26T08:40:07;98993.64;;;22.93;51.61
75247;BME280;63844;50.042;19.224;2023-06-26T08:42:34;98995.84;;;23.00;51.66
75247;BME280;63844;50.042;19.224;2023-06-26T08:45:01;98991.25;;;23.02;50.87
75247;BME280;63844;50.042;19.224;2023-06-26T08:47:28;98993.50;;;23.09;51.15
75247;BME280;63844;50.042;19.224;2023-06-26T08:50:04;98990.05;;;23.13;51.65
75247;BME280;63844;50.042;19.224;2023-06-26T08:52:41;98987.90;;;23.14;52.31
75247;BME280;63844;50.042;19.224;2023-06-26T08:55:09;98990.86;;;23.32;52.44
75247;BME280;63844;50.042;19.224;2023-06-26T08:57:38;98983.39;;;23.48;51.36
75247;BME280;63844;50.042;19.224;2023-06-26T09:00:05;98984.34;;;23.59;49.61
75247;BME280;63844;50.042;19.224;2023-06-26T09:02:32;98982.56;;;23.72;48.22
75247;BME280;63844;50.042;19.224;2023-06-26T09:04:59;98980.14;;;23.78;48.59
75247;BME280;63844;50.042;19.224;2023-06-26T09:07:25;98980.11;;;23.78;47.96
75247;BME280;63844;50.042;19.224;2023-06-26T09:09:52;98973.60;;;23.89;48.23
75247;BME280;63844;50.042;19.224;2023-06-26T09:12:20;98976.92;;;24.01;47.48
75247;BME280;63844;50.042;19.224;2023-06-26T09:14:47;98979.33;;;24.09;47.46
75247;BME280;63844;50.042;19.224;2023-06-26T09:17:14;98980.60;;;23.93;47.34
75247;BME280;63844;50.042;19.224;2023-06-26T09:19:40;98979.50;;;23.77;47.83
75247;BME280;63844;50.042;19.224;2023-06-26T09:22:14;98981.23;;;23.62;47.89
75247;BME280;63844;50.042;19.224;2023-06-26T09:24:41;98981.41;;;23.47;48.28
75247;BME280;63844;50.042;19.224;2023-06-26T09:27:08;98979.85;;;23.41;48.47
75247;BME280;63844;50.042;19.224;2023-06-26T09:29:35;98973.38;;;23.45;48.07
75247;BME280;63844;50.042;19.224;2023-06-26T09:32:01;98973.11;;;23.68;47.48
75247;BME280;63844;50.042;19.224;2023-06-26T09:34:32;98975.24;;;23.91;46.43
75247;BME280;63844;50.042;19.224;2023-06-26T09:36:59;98975.09;;;23.98;44.04
75247;BME280;63844;50.042;19.224;2023-06-26T09:39:32;98969.52;;;24.02;44.56
75247;BME280;63844;50.042;19.224;2023-06-26T09:41:59;98966.63;;;24.17;45.24
75247;BME280;63844;50.042;19.224;2023-06-26T09:44:26;98962.26;;;24.32;46.37
75247;BME280;63844;50.042;19.224;2023-06-26T09:46:54;98965.20;;;24.43;46.25
75247;BME280;63844;50.042;19.224;2023-06-26T09:49:23;98965.04;;;24.46;44.96
75247;BME280;63844;50.042;19.224;2023-06-26T09:51:50;98958.55;;;24.47;45.49
75247;BME280;63844;50.042;19.224;2023-06-26T09:54:17;98961.18;;;24.52;45.17
75247;BME280;63844;50.042;19.224;2023-06-26T09:56:47;98956.14;;;24.61;46.20
75247;BME280;63844;50.042;19.224;2023-06-26T09:59:15;98956.05;;;24.67;44.95
75247;BME280;63844;50.042;19.224;2023-06-26T10:01:45;98958.95;;;24.77;45.38
75247;BME280;63844;50.042;19.224;2023-06-26T10:04:12;98958.22;;;24.84;43.66
75247;BME280;63844;50.042;19.224;2023-06-26T10:06:42;98949.39;;;24.97;44.08
75247;BME280;63844;50.042;19.224;2023-06-26T10:09:12;98949.73;;;24.94;44.74
75247;BME280;63844;50.042;19.224;2023-06-26T10:11:47;98947.66;;;25.03;43.87
75247;BME280;63844;50.042;19.224;2023-06-26T10:14:16;98936.21;;;25.18;45.34
75247;BME280;63844;50.042;19.224;2023-06-26T10:16:44;98937.20;;;25.46;45.43
75247;BME280;63844;50.042;19.224;2023-06-26T10:19:12;98934.11;;;25.75;45.04
75247;BME280;63844;50.042;19.224;2023-06-26T10:21:40;98933.42;;;25.89;44.59
75247;BME280;63844;50.042;19.224;2023-06-26T10:24:08;98929.78;;;25.89;42.97
75247;BME280;63844;50.042;19.224;2023-06-26T10:26:39;98926.52;;;25.66;43.53
75247;BME280;63844;50.042;19.224;2023-06-26T10:29:07;98925.13;;;25.58;44.22
75247;BME280;63844;50.042;19.224;2023-06-26T10:31:35;98922.37;;;25.43;45.05
75247;BME280;63844;50.042;19.224;2023-06-26T10:34:03;98917.64;;;25.25;44.26
75247;BME280;63844;50.042;19.224;2023-06-26T10:36:30;98922.54;;;25.09;44.43
75247;BME280;63844;50.042;19.224;2023-06-26T10:39:01;98919.14;;;24.97;45.04
75247;BME280;63844;50.042;19.224;2023-06-26T10:41:38;98918.75;;;24.86;45.41
75247;BME280;63844;50.042;19.224;2023-06-26T10:44:09;98916.98;;;24.67;45.41
75247;BME280;63844;50.042;19.224;2023-06-26T10:46:53;98921.20;;;24.42;45.93
75247;BME280;63844;50.042;19.224;2023-06-26T10:49:20;98915.97;;;24.29;46.64
75247;BME280;63844;50.042;19.224;2023-06-26T10:51:49;98916.33;;;24.24;47.14
75247;BME280;63844;50.042;19.224;2023-06-26T10:54:17;98919.84;;;24.13;47.29
75247;BME280;63844;50.042;19.224;2023-06-26T10:56:53;98918.09;;;24.10;46.96
75247;BME280;63844;50.042;19.224;2023-06-26T10:59:25;98918.22;;;24.22;47.07
75247;BME280;63844;50.042;19.224;2023-06-26T11:01:59;98916.03;;;24.35;45.65
75247;BME280;63844;50.042;19.224;2023-06-26T11:04:36;98914.88;;;24.49;45.60
75247;BME280;63844;50.042;19.224;2023-06-26T11:07:21;98906.73;;;24.66;43.71
75247;BME280;63844;50.042;19.224;2023-06-26T11:10:02;98907.34;;;24.63;43.39
75247;BME280;63844;50.042;19.224;2023-06-26T11:12:43;98911.80;;;24.51;43.93
75247;BME280;63844;50.042;19.224;2023-06-26T11:15:17;98904.81;;;24.46;45.41
75247;BME280;63844;50.042;19.224;2023-06-26T11:17:45;98902.42;;;24.60;46.87
75247;BME280;63844;50.042;19.224;2023-06-26T11:20:14;98898.34;;;24.84;47.25
75247;BME280;63844;50.042;19.224;2023-06-26T11:22:42;98898.52;;;25.01;46.43
75247;BME280;63844;50.042;19.224;2023-06-26T11:25:10;98891.95;;;25.00;45.86
75247;BME280;63844;50.042;19.224;2023-06-26T11:27:43;98888.77;;;25.19;47.19
75247;BME280;63844;50.042;19.224;2023-06-26T11:30:22;98894.98;;;25.40;46.06
75247;BME280;63844;50.042;19.224;2023-06-26T11:32:48;98891.33;;;25.47;45.97
75247;BME280;63844;50.042;19.224;2023-06-26T11:35:25;98894.59;;;25.47;44.58
75247;BME280;63844;50.042;19.224;2023-06-26T11:38:00;98887.02;;;25.24;44.12
75247;BME280;63844;50.042;19.224;2023-06-26T11:40:32;98887.43;;;25.41;44.94
75247;BME280;63844;50.042;19.224;2023-06-26T11:43:00;98886.11;;;25.55;45.22
75247;BME280;63844;50.042;19.224;2023-06-26T11:45:29;98885.84;;;25.68;45.02
75247;BME280;63844;50.042;19.224;2023-06-26T11:47:57;98887.17;;;25.68;41.76
75247;BME280;63844;50.042;19.224;2023-06-26T11:50:24;98887.67;;;25.67;41.81
75247;BME280;63844;50.042;19.224;2023-06-26T11:52:55;98887.27;;;25.70;40.96
75247;BME280;63844;50.042;19.224;2023-06-26T11:55:23;98884.98;;;25.75;39.48
75247;BME280;63844;50.042;19.224;2023-06-26T11:57:54;98879.73;;;25.75;38.02
75247;BME280;63844;50.042;19.224;2023-06-26T12:00:22;98882.05;;;25.75;38.80
75247;BME280;63844;50.042;19.224;2023-06-26T12:02:48;98878.59;;;25.77;37.68
75247;BME280;63844;50.042;19.224;2023-06-26T12:05:16;98874.35;;;25.80;37.07
75247;BME280;63844;50.042;19.224;2023-06-26T12:07:44;98866.09;;;26.03;39.36
75247;BME280;63844;50.042;19.224;2023-06-26T12:10:13;98860.70;;;26.20;38.75
75247;BME280;63844;50.042;19.224;2023-06-26T12:12:40;98851.60;;;26.47;39.77
75247;BME280;63844;50.042;19.224;2023-06-26T12:15:08;98847.45;;;26.77;39.84
75247;BME280;63844;50.042;19.224;2023-06-26T12:17:38;98841.77;;;27.07;39.38
75247;BME280;63844;50.042;19.224;2023-06-26T12:20:16;98854.45;;;27.03;38.30
75247;BME280;63844;50.042;19.224;2023-06-26T12:22:46;98854.80;;;26.87;38.64
75247;BME280;63844;50.042;19.224;2023-06-26T12:25:13;98852.27;;;26.76;39.14
75247;BME280;63844;50.042;19.224;2023-06-26T12:27:40;98849.71;;;26.72;38.32
75247;BME280;63844;50.042;19.224;2023-06-26T12:30:07;98847.86;;;26.75;38.63
75247;BME280;63844;50.042;19.224;2023-06-26T12:32:34;98845.23;;;26.98;39.05
75247;BME280;63844;50.042;19.224;2023-06-26T12:35:01;98839.25;;;27.29;39.94
75247;BME280;63844;50.042;19.224;2023-06-26T12:37:28;98842.23;;;27.63;39.56
75247;BME280;63844;50.042;19.224;2023-06-26T12:39:56;98837.13;;;27.95;40.04
75247;BME280;63844;50.042;19.224;2023-06-26T12:42:25;98835.69;;;28.14;38.56
75247;BME280;63844;50.042;19.224;2023-06-26T12:44:55;98839.75;;;28.08;36.74
75247;BME280;63844;50.042;19.224;2023-06-26T12:47:27;98833.92;;;27.89;36.73
75247;BME280;63844;50.042;19.224;2023-06-26T12:49:54;98835.03;;;28.11;36.87
75247;BME280;63844;50.042;19.224;2023-06-26T12:52:21;98832.96;;;28.20;36.97
75247;BME280;63844;50.042;19.224;2023-06-26T12:54:52;98833.48;;;28.38;37.33